createdAt,value
2023-02-13T00:00:45.697Z,6.10
2023-02-13T00:03:13.879Z,5.90
2023-02-13T00:05:42.648Z,5.00
2023-02-13T00:08:10.691Z,5.23
2023-02-13T00:10:39.314Z,5.60
2023-02-13T00:13:07.486Z,5.80
2023-02-13T00:15:35.367Z,5.47
2023-02-13T00:18:03.863Z,5.30
2023-02-13T00:20:31.954Z,5.17
2023-02-13T00:23:00.873Z,4.93
2023-02-13T00:25:29.387Z,5.53
2023-02-13T00:27:57.377Z,4.67
2023-02-13T00:30:25.388Z,4.87
2023-02-13T00:32:53.324Z,4.27
2023-02-13T00:35:21.668Z,4.50
2023-02-13T00:37:50.549Z,4.47
2023-02-13T00:40:18.820Z,4.67
2023-02-13T00:42:46.751Z,5.03
2023-02-13T00:45:15.107Z,3.80
2023-02-13T00:47:43.224Z,4.30
2023-02-13T00:50:12.499Z,4.60
2023-02-13T00:52:41.259Z,4.23
2023-02-13T00:55:10.398Z,4.03
2023-02-13T00:57:38.461Z,4.77
2023-02-13T01:00:10.634Z,4.10
2023-02-13T01:02:38.459Z,4.27
2023-02-13T01:05:08.593Z,4.03
2023-02-13T01:07:36.728Z,3.90
2023-02-13T01:10:05.348Z,4.00
2023-02-13T01:12:33.641Z,3.37
2023-02-13T01:15:01.297Z,3.73
2023-02-13T01:17:28.996Z,3.40
2023-02-13T01:19:57.597Z,3.80
2023-02-13T01:22:25.841Z,3.50
2023-02-13T01:24:54.436Z,3.10
2023-02-13T01:27:22.488Z,3.70
2023-02-13T01:29:50.865Z,3.80
2023-02-13T01:32:18.990Z,3.23
2023-02-13T01:34:47.171Z,3.53
2023-02-13T01:37:14.865Z,3.20
2023-02-13T01:39:42.719Z,3.33
2023-02-13T01:42:23.619Z,3.33
2023-02-13T01:45:02.374Z,3.30
2023-02-13T01:47:32.465Z,3.67
2023-02-13T01:50:12.792Z,3.30
2023-02-13T01:52:43.688Z,3.30
2023-02-13T01:55:10.868Z,3.77
2023-02-13T01:57:38.471Z,3.63
2023-02-13T02:00:11.255Z,4.03
2023-02-13T02:02:43.178Z,3.57
2023-02-13T02:05:17.063Z,3.33
2023-02-13T02:07:45.222Z,3.20
2023-02-13T02:10:14.749Z,3.37
2023-02-13T02:12:48.766Z,3.60
2023-02-13T02:15:16.418Z,4.03
2023-02-13T02:17:45.232Z,3.30
2023-02-13T02:21:05.970Z,4.17
2023-02-13T02:23:32.979Z,3.40
2023-02-13T02:26:03.005Z,3.10
2023-02-13T02:28:47.957Z,3.10
2023-02-13T02:31:39.741Z,3.43
2023-02-13T02:34:44.572Z,3.73
2023-02-13T02:37:28.277Z,3.40
2023-02-13T02:40:18.004Z,3.17
2023-02-13T02:43:22.464Z,3.50
2023-02-13T02:46:03.666Z,3.17
2023-02-13T02:48:48.527Z,3.27
2023-02-13T02:51:34.325Z,2.70
2023-02-13T02:54:43.058Z,3.40
2023-02-13T02:59:58.890Z,2.63
2023-02-13T03:02:49.545Z,3.17
2023-02-13T03:05:41.993Z,3.10
2023-02-13T03:08:08.824Z,2.67
2023-02-13T03:10:55.742Z,2.70
2023-02-13T03:13:52.711Z,2.63
2023-02-13T03:16:39.682Z,3.00
2023-02-13T03:19:25.009Z,2.97
2023-02-13T03:22:18.795Z,2.73
2023-02-13T03:25:07.890Z,3.10
2023-02-13T03:28:14.259Z,2.63
2023-02-13T03:31:02.053Z,2.70
2023-02-13T03:33:57.229Z,3.13
2023-02-13T03:37:07.139Z,3.23
2023-02-13T03:39:37.351Z,3.03
2023-02-13T03:42:07.226Z,2.93
2023-02-13T03:45:15.194Z,3.20
2023-02-13T03:47:42.551Z,2.65
2023-02-13T03:50:12.169Z,3.20
2023-02-13T03:52:54.476Z,3.57
2023-02-13T03:55:41.773Z,3.17
2023-02-13T03:58:36.641Z,3.55
2023-02-13T04:01:05.360Z,4.37
2023-02-13T04:03:43.650Z,3.07
2023-02-13T04:06:13.757Z,3.67
2023-02-13T04:08:44.095Z,3.90
2023-02-13T04:11:14.963Z,3.80
2023-02-13T04:13:48.608Z,4.00
2023-02-13T04:16:22.836Z,3.47
2023-02-13T04:18:50.973Z,3.40
2023-02-13T04:23:54.297Z,3.77
2023-02-13T04:26:22.092Z,3.63
2023-02-13T04:28:50.032Z,3.67
2023-02-13T04:31:18.149Z,3.63
2023-02-13T04:33:46.159Z,3.40
2023-02-13T04:36:14.426Z,3.57
2023-02-13T04:38:42.025Z,4.07
2023-02-13T04:41:10.452Z,3.83
2023-02-13T04:43:38.238Z,3.93
2023-02-13T04:46:06.863Z,4.80
2023-02-13T04:48:38.718Z,4.27
2023-02-13T04:51:07.127Z,4.60
2023-02-13T04:53:34.789Z,3.67
2023-02-13T04:56:03.519Z,5.20
2023-02-13T04:58:32.323Z,5.03
2023-02-13T05:01:00.674Z,4.03
2023-02-13T05:03:28.657Z,4.13
2023-02-13T05:05:56.915Z,4.23
2023-02-13T05:08:24.936Z,4.27
2023-02-13T05:10:52.783Z,4.43
2023-02-13T05:13:21.789Z,4.73
2023-02-13T05:15:50.539Z,4.20
2023-02-13T05:18:18.507Z,4.67
2023-02-13T05:21:06.475Z,4.63
2023-02-13T05:23:34.906Z,4.30
2023-02-13T05:26:03.010Z,4.10
2023-02-13T05:28:49.285Z,4.23
2023-02-13T05:31:17.687Z,4.40
2023-02-13T05:33:45.432Z,4.60
2023-02-13T05:36:13.189Z,4.63
2023-02-13T05:38:41.425Z,4.43
2023-02-13T05:41:09.309Z,4.30
2023-02-13T05:43:37.699Z,3.90
2023-02-13T05:46:09.371Z,5.57
2023-02-13T05:48:37.752Z,6.20
2023-02-13T05:51:05.956Z,5.17
2023-02-13T05:53:37.042Z,5.00
2023-02-13T05:56:05.920Z,5.67
2023-02-13T05:58:33.461Z,6.30
2023-02-13T06:01:01.351Z,5.40
2023-02-13T06:03:30.107Z,5.00
2023-02-13T06:05:58.401Z,5.60
2023-02-13T06:08:27.031Z,5.70
2023-02-13T06:10:55.282Z,6.00
2023-02-13T06:13:23.804Z,5.93
2023-02-13T06:15:52.180Z,6.10
2023-02-13T06:18:20.323Z,5.87
2023-02-13T06:20:48.631Z,5.90
2023-02-13T06:23:17.049Z,6.97
2023-02-13T06:25:45.628Z,6.83
2023-02-13T06:28:13.696Z,6.47
2023-02-13T06:30:41.521Z,6.47
2023-02-13T06:33:08.384Z,8.00
2023-02-13T06:35:36.956Z,6.97
2023-02-13T06:38:05.272Z,9.20
2023-02-13T06:40:33.281Z,8.87
2023-02-13T06:43:00.904Z,6.90
2023-02-13T06:45:28.980Z,6.33
2023-02-13T06:47:57.025Z,6.53
2023-02-13T06:50:25.589Z,6.60
2023-02-13T06:52:53.082Z,6.77
2023-02-13T06:55:21.108Z,7.27
2023-02-13T06:57:48.824Z,8.17
2023-02-13T07:00:18.286Z,8.53
2023-02-13T07:02:46.437Z,10.00
2023-02-13T07:05:14.374Z,8.93
2023-02-13T07:07:42.847Z,10.10
2023-02-13T07:10:12.029Z,11.77
2023-02-13T07:12:39.285Z,11.83
2023-02-13T07:15:08.188Z,13.33
2023-02-13T07:17:36.365Z,14.37
2023-02-13T07:20:05.054Z,12.83
2023-02-13T07:22:33.682Z,12.67
2023-02-13T07:25:01.545Z,12.63
2023-02-13T07:27:29.604Z,14.23
2023-02-13T07:29:57.697Z,13.40
2023-02-13T07:32:25.769Z,14.80
2023-02-13T07:35:01.595Z,14.80
2023-02-13T07:37:30.617Z,15.15
2023-02-13T07:39:58.387Z,15.50
2023-02-13T07:42:26.899Z,15.43
2023-02-13T07:44:55.025Z,15.50
2023-02-13T07:47:23.046Z,15.40
2023-02-13T07:49:51.335Z,15.27
2023-02-13T07:52:19.411Z,15.63
2023-02-13T07:54:51.486Z,14.10
2023-02-13T07:57:19.264Z,16.80
2023-02-13T07:59:47.936Z,16.23
2023-02-13T08:02:16.485Z,14.17
2023-02-13T08:05:13.022Z,15.50
2023-02-13T08:07:43.489Z,15.73
2023-02-13T08:10:31.245Z,15.23
2023-02-13T08:12:59.620Z,14.93
2023-02-13T08:15:27.450Z,15.07
2023-02-13T08:17:55.930Z,15.37
2023-02-13T08:20:26.718Z,16.03
2023-02-13T08:22:58.147Z,16.93
2023-02-13T08:25:33.114Z,16.83
2023-02-13T08:28:01.572Z,16.10
2023-02-13T08:30:31.223Z,17.20
2023-02-13T08:33:18.809Z,19.50
2023-02-13T08:35:48.504Z,17.27
2023-02-13T08:38:19.058Z,17.27
2023-02-13T08:40:46.935Z,15.93
2023-02-13T08:43:18.455Z,16.63
2023-02-13T08:45:52.077Z,16.20
2023-02-13T08:48:20.083Z,17.10
2023-02-13T08:50:48.309Z,14.90
2023-02-13T08:53:16.462Z,15.77
2023-02-13T08:55:44.621Z,15.40
2023-02-13T08:58:12.819Z,16.93
2023-02-13T09:00:41.047Z,16.73
2023-02-13T09:03:10.495Z,15.60
2023-02-13T09:05:38.911Z,14.83
2023-02-13T09:08:08.202Z,14.57
2023-02-13T09:10:36.305Z,15.50
2023-02-13T09:13:04.676Z,16.37
2023-02-13T09:15:32.762Z,15.87
2023-02-13T09:18:01.178Z,16.60
2023-02-13T09:20:29.028Z,15.20
2023-02-13T09:22:57.157Z,16.33
2023-02-13T09:25:24.862Z,16.67
2023-02-13T09:27:52.893Z,15.23
2023-02-13T09:30:24.192Z,16.30
2023-02-13T09:32:52.990Z,14.77
2023-02-13T09:35:20.589Z,15.43
2023-02-13T09:37:48.763Z,16.63
2023-02-13T09:40:23.990Z,17.33
2023-02-13T09:43:17.272Z,16.77
2023-02-13T09:45:45.236Z,18.03
2023-02-13T09:48:19.080Z,24.67
2023-02-13T09:50:46.645Z,36.33
2023-02-13T09:53:20.683Z,31.90
2023-02-13T09:55:53.101Z,36.93
2023-02-13T09:58:27.365Z,30.27
2023-02-13T10:00:56.462Z,28.00
2023-02-13T10:03:30.552Z,26.13
2023-02-13T10:06:58.085Z,18.17
2023-02-13T10:09:36.651Z,12.27
2023-02-13T10:12:22.293Z,11.93
2023-02-13T10:15:11.495Z,10.53
2023-02-13T10:17:51.110Z,10.83
2023-02-13T10:20:40.439Z,11.53
2023-02-13T10:23:29.474Z,11.07
2023-02-13T10:26:42.714Z,11.90
2023-02-13T10:29:32.878Z,11.93
2023-02-13T10:32:01.351Z,17.90
2023-02-13T10:34:31.357Z,22.70
2023-02-13T10:36:58.642Z,25.70
2023-02-13T10:39:29.522Z,20.77
2023-02-13T10:41:59.440Z,13.23
2023-02-13T10:45:00.981Z,13.73
2023-02-13T10:47:48.684Z,11.40
2023-02-13T10:50:24.335Z,11.15
2023-02-13T10:53:15.720Z,10.67
2023-02-13T10:56:04.293Z,10.50
2023-02-13T10:58:43.262Z,10.40
2023-02-13T11:01:25.967Z,9.60
2023-02-13T11:04:05.512Z,9.30
2023-02-13T11:06:33.884Z,10.70
2023-02-13T11:09:07.341Z,11.53
2023-02-13T11:11:36.386Z,10.07
2023-02-13T11:14:22.990Z,11.00
2023-02-13T11:17:01.959Z,10.10
2023-02-13T11:19:39.889Z,10.17
2023-02-13T11:22:33.536Z,10.73
2023-02-13T11:25:13.502Z,10.67
2023-02-13T11:27:41.041Z,10.13
2023-02-13T11:30:12.542Z,9.73
2023-02-13T11:32:40.901Z,9.77
2023-02-13T11:35:27.526Z,11.13
2023-02-13T11:38:24.595Z,10.00
2023-02-13T11:41:12.703Z,10.48
2023-02-13T11:43:50.615Z,10.47
2023-02-13T11:46:25.380Z,11.57
2023-02-13T11:49:02.715Z,10.00
2023-02-13T11:51:42.477Z,10.57
2023-02-13T11:54:29.395Z,10.63
2023-02-13T11:57:17.500Z,10.43
2023-02-13T11:59:45.493Z,9.57
2023-02-13T12:02:20.538Z,9.50
2023-02-13T12:04:49.805Z,9.30
2023-02-13T12:07:24.514Z,10.50
2023-02-13T12:10:12.251Z,9.50
2023-02-13T12:12:45.473Z,9.37
2023-02-13T12:15:32.586Z,10.40
2023-02-13T12:18:23.810Z,9.10
2023-02-13T12:21:22.690Z,9.60
2023-02-13T12:24:04.209Z,8.90
2023-02-13T12:26:45.183Z,9.57
2023-02-13T12:29:22.039Z,10.13
2023-02-13T12:32:07.216Z,9.30
2023-02-13T12:34:52.387Z,8.90
2023-02-13T12:37:40.528Z,9.10
2023-02-13T12:40:24.892Z,9.97
2023-02-13T12:43:04.519Z,9.60
2023-02-13T12:45:37.676Z,9.13
2023-02-13T12:48:10.438Z,9.37
2023-02-13T12:50:53.958Z,9.57
2023-02-13T12:53:40.712Z,10.10
2023-02-13T12:56:16.838Z,9.30
2023-02-13T12:59:16.613Z,10.13
2023-02-13T13:01:49.505Z,10.37
2023-02-13T13:04:25.458Z,9.47
2023-02-13T13:07:11.822Z,10.82
2023-02-13T13:09:50.776Z,10.20
2023-02-13T13:12:54.190Z,9.93
2023-02-13T13:15:33.610Z,11.40
2023-02-13T13:18:07.506Z,11.37
2023-02-13T13:20:37.420Z,11.30
2023-02-13T13:23:11.879Z,10.40
2023-02-13T13:25:45.829Z,10.63
2023-02-13T13:28:22.240Z,10.97
2023-02-13T13:30:53.065Z,11.40
2023-02-13T13:33:22.240Z,10.10
2023-02-13T13:36:17.903Z,10.53
2023-02-13T13:39:07.292Z,10.17
2023-02-13T13:41:52.111Z,13.63
2023-02-13T13:44:49.532Z,11.90
2023-02-13T13:48:01.465Z,10.90
2023-02-13T13:50:30.637Z,11.37
2023-02-13T13:53:28.383Z,10.80
2023-02-13T13:56:01.121Z,10.93
2023-02-13T13:58:41.510Z,11.17
2023-02-13T14:01:23.584Z,12.17
2023-02-13T14:03:51.517Z,10.50
2023-02-13T14:06:23.874Z,11.07
2023-02-13T14:09:32.846Z,11.23
2023-02-13T14:12:02.490Z,11.03
2023-02-13T14:14:29.145Z,11.90
2023-02-13T14:16:59.894Z,12.43
2023-02-13T14:19:27.253Z,11.73
2023-02-13T14:22:00.929Z,11.90
2023-02-13T14:24:29.084Z,11.80
2023-02-13T14:27:05.108Z,10.47
2023-02-13T14:29:33.630Z,9.77
2023-02-13T14:32:03.433Z,10.33
2023-02-13T14:34:33.331Z,10.03
2023-02-13T14:37:21.174Z,10.30
2023-02-13T14:40:16.366Z,9.73
2023-02-13T14:43:29.628Z,9.90
2023-02-13T14:45:58.685Z,10.03
2023-02-13T14:48:36.602Z,10.10
2023-02-13T14:51:04.236Z,10.73
2023-02-13T14:53:34.822Z,10.47
2023-02-13T14:56:28.147Z,10.13
2023-02-13T14:59:04.705Z,10.97
2023-02-13T15:01:38.034Z,10.27
2023-02-13T15:04:13.319Z,10.33
2023-02-13T15:06:44.753Z,11.13
2023-02-13T15:09:35.647Z,9.97
2023-02-13T15:12:03.677Z,9.53
2023-02-13T15:14:38.067Z,10.20
2023-02-13T15:17:27.607Z,11.23
2023-02-13T15:19:55.748Z,10.30
2023-02-13T15:22:58.794Z,10.97
2023-02-13T15:25:41.643Z,11.43
2023-02-13T15:28:09.957Z,10.30
2023-02-13T15:30:38.626Z,10.60
2023-02-13T15:33:19.363Z,10.97
2023-02-13T15:35:47.470Z,11.00
2023-02-13T15:38:24.323Z,11.17
2023-02-13T15:40:52.766Z,11.20
2023-02-13T15:43:33.544Z,11.23
2023-02-13T15:46:05.942Z,11.13
2023-02-13T15:48:34.645Z,11.33
2023-02-13T15:51:02.546Z,11.53
2023-02-13T15:53:31.234Z,11.40
2023-02-13T15:56:03.558Z,11.30
2023-02-13T15:58:32.088Z,11.77
2023-02-13T16:01:07.706Z,11.37
2023-02-13T16:03:35.348Z,11.17
2023-02-13T16:06:02.635Z,11.17
2023-02-13T16:08:29.619Z,11.10
2023-02-13T16:11:29.677Z,11.30
2023-02-13T16:14:21.416Z,11.10
2023-02-13T16:17:03.283Z,10.93
2023-02-13T16:20:01.062Z,12.33
2023-02-13T16:25:04.874Z,14.53
2023-02-13T16:27:32.704Z,21.50
2023-02-13T16:30:01.453Z,16.87
2023-02-13T16:32:34.136Z,14.20
2023-02-13T16:35:57.914Z,11.67
2023-02-13T16:38:31.549Z,11.47
2023-02-13T16:41:00.637Z,12.17
2023-02-13T16:43:33.659Z,12.43
2023-02-13T16:46:15.208Z,12.40
2023-02-13T16:49:03.648Z,12.40
2023-02-13T16:51:30.361Z,13.67
2023-02-13T16:54:01.987Z,13.23
2023-02-13T16:56:29.077Z,13.87
2023-02-13T16:59:26.417Z,15.30
2023-02-13T17:02:13.519Z,13.25
2023-02-13T17:04:42.339Z,14.10
2023-02-13T17:07:13.034Z,12.60
2023-02-13T17:09:41.121Z,13.83
2023-02-13T17:12:17.338Z,12.70
2023-02-13T17:14:45.029Z,14.37
2023-02-13T17:17:17.372Z,14.00
2023-02-13T17:19:44.532Z,13.43
2023-02-13T17:22:37.284Z,14.07
2023-02-13T17:25:26.626Z,13.80
2023-02-13T17:27:57.034Z,13.47
2023-02-13T17:30:29.233Z,14.57
2023-02-13T17:33:04.648Z,14.47
2023-02-13T17:35:33.169Z,15.80
2023-02-13T17:38:01.066Z,14.50
2023-02-13T17:40:30.360Z,17.90
2023-02-13T17:42:58.983Z,21.60
2023-02-13T17:45:28.257Z,22.00
2023-02-13T17:47:57.851Z,18.63
2023-02-13T17:50:28.228Z,20.23
2023-02-13T17:52:55.225Z,18.67
2023-02-13T17:55:29.750Z,18.93
2023-02-13T17:57:57.782Z,18.07
2023-02-13T18:00:28.006Z,18.57
2023-02-13T18:02:55.444Z,21.17
2023-02-13T18:05:23.140Z,20.73
2023-02-13T18:07:51.208Z,18.33
2023-02-13T18:10:25.782Z,17.23
2023-02-13T18:12:53.182Z,17.67
2023-02-13T18:15:21.723Z,17.67
2023-02-13T18:17:49.847Z,19.27
2023-02-13T18:20:19.046Z,18.03
2023-02-13T18:22:47.365Z,18.97
2023-02-13T18:25:14.945Z,18.73
2023-02-13T18:27:43.283Z,19.50
2023-02-13T18:30:12.760Z,18.00
2023-02-13T18:32:40.412Z,19.40
2023-02-13T18:35:09.902Z,18.70
2023-02-13T18:37:39.351Z,18.20
2023-02-13T18:40:10.832Z,16.70
2023-02-13T18:42:39.122Z,17.97
2023-02-13T18:45:09.213Z,17.30
2023-02-13T18:47:37.248Z,17.97
2023-02-13T18:50:05.452Z,19.53
2023-02-13T18:52:33.452Z,18.00
2023-02-13T18:55:01.712Z,16.20
2023-02-13T18:57:29.811Z,16.27
2023-02-13T18:59:57.654Z,18.27
2023-02-13T19:02:25.791Z,18.60
2023-02-13T19:04:53.334Z,19.23
2023-02-13T19:07:20.956Z,17.67
2023-02-13T19:09:49.056Z,20.40
2023-02-13T19:12:17.268Z,17.00
2023-02-13T19:14:45.259Z,17.43
2023-02-13T19:17:13.008Z,17.90
2023-02-13T19:19:41.045Z,17.97
2023-02-13T19:22:09.310Z,17.93
2023-02-13T19:24:37.470Z,17.00
2023-02-13T19:27:05.243Z,19.57
2023-02-13T19:29:33.860Z,17.83
2023-02-13T19:32:01.984Z,19.83
2023-02-13T19:34:30.614Z,18.53
2023-02-13T19:36:58.850Z,18.57
2023-02-13T19:39:26.914Z,17.40
2023-02-13T19:41:55.198Z,19.30
2023-02-13T19:44:23.473Z,18.57
2023-02-13T19:46:51.832Z,18.27
2023-02-13T19:49:22.698Z,17.67
2023-02-13T19:51:50.506Z,22.03
2023-02-13T19:54:38.488Z,21.20
2023-02-13T19:59:33.905Z,19.88
2023-02-13T20:02:01.844Z,22.13
2023-02-13T20:04:29.502Z,23.73
2023-02-13T20:06:58.582Z,22.23
2023-02-13T20:09:27.916Z,21.57
2023-02-13T20:11:56.202Z,19.53
2023-02-13T20:14:25.304Z,20.73
2023-02-13T20:16:53.524Z,20.17
2023-02-13T20:19:21.918Z,20.27
2023-02-13T20:21:49.848Z,20.30
2023-02-13T20:24:18.046Z,21.17
2023-02-13T20:26:46.634Z,19.77
2023-02-13T20:29:14.277Z,19.93
2023-02-13T20:31:42.046Z,19.63
2023-02-13T20:34:09.894Z,22.43
2023-02-13T20:36:37.480Z,19.80
2023-02-13T20:39:06.536Z,19.37
2023-02-13T20:41:35.691Z,19.67
2023-02-13T20:44:05.274Z,18.80
2023-02-13T20:46:34.444Z,18.63
2023-02-13T20:49:02.693Z,19.07
2023-02-13T20:51:30.365Z,19.07
2023-02-13T20:54:00.014Z,19.00
2023-02-13T20:56:28.614Z,18.03
2023-02-13T20:58:57.306Z,19.00
2023-02-13T21:01:26.862Z,18.57
2023-02-13T21:03:55.054Z,19.27
2023-02-13T21:06:30.445Z,19.40
2023-02-13T21:08:57.741Z,18.10
2023-02-13T21:11:28.358Z,19.50
2023-02-13T21:13:57.690Z,21.20
2023-02-13T21:16:28.059Z,21.53
2023-02-13T21:18:56.638Z,20.33
2023-02-13T21:21:24.702Z,20.73
2023-02-13T21:23:56.311Z,21.03
2023-02-13T21:26:24.546Z,20.10
2023-02-13T21:28:52.850Z,20.30
2023-02-13T21:31:25.753Z,20.13
2023-02-13T21:33:53.060Z,20.37
2023-02-13T21:36:21.645Z,20.37
2023-02-13T21:38:51.164Z,22.07
2023-02-13T21:41:19.551Z,22.47
2023-02-13T21:43:48.236Z,20.70
2023-02-13T21:46:23.773Z,21.23
2023-02-13T21:49:02.148Z,20.70
2023-02-13T21:51:30.980Z,19.37
2023-02-13T21:53:58.762Z,22.80
2023-02-13T21:56:28.105Z,22.63
2023-02-13T21:58:56.944Z,21.33
2023-02-13T22:01:46.670Z,22.10
2023-02-13T22:04:15.404Z,21.27
2023-02-13T22:06:43.564Z,22.17
2023-02-13T22:09:13.764Z,20.67
2023-02-13T22:11:40.918Z,20.77
2023-02-13T22:14:12.046Z,20.97
2023-02-13T22:16:39.857Z,18.70
2023-02-13T22:19:08.772Z,19.63
2023-02-13T22:21:42.093Z,19.93
2023-02-13T22:24:10.079Z,21.23
2023-02-13T22:26:40.800Z,20.87
2023-02-13T22:29:14.265Z,20.50
2023-02-13T22:31:43.574Z,20.97
2023-02-13T22:34:12.333Z,20.70
2023-02-13T22:36:40.328Z,20.67
2023-02-13T22:39:08.313Z,23.13
2023-02-13T22:41:35.499Z,24.03
2023-02-13T22:44:03.750Z,25.40
2023-02-13T22:46:35.311Z,23.03
2023-02-13T22:49:03.202Z,23.77
2023-02-13T22:51:34.085Z,22.93
2023-02-13T22:54:01.441Z,24.10
2023-02-13T22:56:31.193Z,23.47
2023-02-13T22:58:59.156Z,24.03
2023-02-13T23:01:27.005Z,25.10
2023-02-13T23:03:55.032Z,23.73
2023-02-13T23:06:23.197Z,23.83
2023-02-13T23:08:52.713Z,23.63
2023-02-13T23:11:39.066Z,22.17
2023-02-13T23:14:07.209Z,25.07
2023-02-13T23:16:53.462Z,22.77
2023-02-13T23:19:21.671Z,22.40
2023-02-13T23:21:49.620Z,22.67
2023-02-13T23:24:18.585Z,21.57
2023-02-13T23:26:46.497Z,21.83
2023-02-13T23:29:14.842Z,21.57
2023-02-13T23:31:43.932Z,21.80
2023-02-13T23:34:13.523Z,20.33
2023-02-13T23:36:42.023Z,19.63
2023-02-13T23:39:10.468Z,19.40
2023-02-13T23:41:38.681Z,20.07
2023-02-13T23:44:06.867Z,19.47
2023-02-13T23:46:35.456Z,21.27
2023-02-13T23:49:04.372Z,21.43
2023-02-13T23:51:33.849Z,20.43
2023-02-13T23:54:02.350Z,20.90
2023-02-13T23:56:30.745Z,21.17
2023-02-13T23:58:58.390Z,22.10
